Time;durP1;ratioP1;P1;durP2;ratioP2;P2;SDS_P1;SDS_P2;PMS_P1;PMS_P2;Temp;Humidity;BMP_temperature;BMP_pressure;BME280_temperature;BME280_humidity;BME280_pressure;Samples;Min_cycle;Max_cycle;Signal;HPM_P1;HPM_P2
2022/01/04 00:00:01;;;;;;;14.10;6.50;;;;;;;6.60;88.84;99284.23;87239;1288;79504;-68
2022/01/04 00:02:07;;;;;;;11.80;6.10;;;;;;;6.62;88.79;99279.31;87295;1287;81142;-67
2022/01/04 00:04:16;;;;;;;14.90;7.20;;;;;;;6.65;88.59;99275.14;87278;1287;98251;-67
2022/01/04 00:06:22;;;;;;;13.20;6.50;;;;;;;6.64;88.73;99272.52;87256;1287;88842;-67
2022/01/04 00:08:28;;;;;;;14.80;6.10;;;;;;;6.62;88.45;99275.72;87277;1287;94319;-68
2022/01/04 00:10:37;;;;;;;14.50;6.00;;;;;;;6.58;88.33;99278.58;87249;1287;79447;-69
2022/01/04 00:15:11;;;;;;;12.40;5.80;;;;;;;6.53;88.49;99275.20;87225;1287;99270;-68
2022/01/04 00:17:17;;;;;;;13.10;5.80;;;;;;;6.53;88.38;99271.77;87184;1288;88122;-69
2022/01/04 00:19:24;;;;;;;13.40;5.90;;;;;;;6.52;88.59;99269.31;87247;1287;94785;-67
2022/01/04 00:21:30;;;;;;;14.90;5.90;;;;;;;6.55;88.38;99268.39;87248;1287;81717;-69
2022/01/04 00:23:37;;;;;;;15.70;6.30;;;;;;;6.56;88.43;99265.92;87259;1287;79542;-69
2022/01/04 00:25:45;;;;;;;12.30;5.50;;;;;;;6.61;88.41;99271.80;87258;1287;100159;-71
2022/01/04 00:27:54;;;;;;;10.20;5.70;;;;;;;6.65;88.38;99269.85;87261;1287;88554;-71
2022/01/04 00:30:00;;;;;;;11.40;5.60;;;;;;;6.68;88.32;99266.54;87270;1287;95011;-70
2022/01/04 00:32:08;;;;;;;14.10;6.20;;;;;;;6.67;88.45;99269.38;87265;1287;78243;-71
2022/01/04 00:34:15;;;;;;;16.10;6.60;;;;;;;6.67;88.40;99267.35;87199;1288;80815;-70
2022/01/04 00:36:22;;;;;;;14.40;6.40;;;;;;;6.66;88.38;99267.21;87240;1287;100325;-69
2022/01/04 00:38:29;;;;;;;11.40;5.70;;;;;;;6.62;88.32;99266.07;87239;1287;88792;-70
2022/01/04 00:40:35;;;;;;;15.60;6.00;;;;;;;6.57;88.34;99266.74;87250;1287;94932;-71
2022/01/04 00:42:44;;;;;;;13.10;6.50;;;;;;;6.57;88.36;99269.60;87231;1287;80787;-71
2022/01/04 00:44:52;;;;;;;11.90;5.80;;;;;;;6.57;88.34;99271.05;87311;1287;80254;-69
2022/01/04 00:47:01;;;;;;;16.20;6.10;;;;;;;6.54;88.18;99267.35;87235;1287;99593;-69
2022/01/04 00:49:10;;;;;;;12.00;5.80;;;;;;;6.54;88.17;99264.67;87271;1287;87363;-68
2022/01/04 00:51:16;;;;;;;12.80;6.70;;;;;;;6.56;88.30;99256.84;87286;1287;94355;-68
2022/01/04 00:53:22;;;;;;;10.00;5.20;;;;;;;6.58;88.19;99252.15;87318;1287;80110;-68
2022/01/04 00:55:29;;;;;;;13.40;5.30;;;;;;;6.59;88.36;99249.81;87256;1287;83518;-70
2022/01/04 00:57:34;;;;;;;12.10;5.30;;;;;;;6.58;88.28;99247.48;87343;1287;100253;-69
2022/01/04 00:59:40;;;;;;;13.30;6.40;;;;;;;6.56;88.28;99245.56;87152;1288;89181;-69
2022/01/04 01:01:49;;;;;;;13.40;5.10;;;;;;;6.56;88.26;99240.20;87258;1287;96081;-68
2022/01/04 01:03:55;;;;;;;12.80;5.70;;;;;;;6.55;88.06;99231.90;87218;1287;78466;-71
2022/01/04 01:06:01;;;;;;;13.90;5.90;;;;;;;6.51;88.10;99228.68;87273;1287;80426;-67
2022/01/04 01:08:08;;;;;;;10.50;5.70;;;;;;;6.43;87.98;99228.12;87331;1287;99995;-68
2022/01/04 01:10:35;;;;;;;12.40;5.80;;;;;;;6.31;87.90;99230.96;87407;1287;88657;-70
2022/01/04 01:12:41;;;;;;;14.30;5.90;;;;;;;6.18;87.98;99227.10;87369;1287;95126;-71
2022/01/04 01:14:47;;;;;;;10.60;4.80;;;;;;;6.07;87.87;99227.27;87395;1287;79878;-69
2022/01/04 01:16:53;;;;;;;12.60;4.90;;;;;;;5.99;87.88;99231.10;87244;1287;79683;-67
2022/01/04 01:18:59;;;;;;;12.70;5.00;;;;;;;5.91;88.13;99230.96;87369;1287;97580;-69
2022/01/04 01:21:07;;;;;;;9.70;4.40;;;;;;;5.82;88.05;99228.69;87374;1287;88874;-69
2022/01/04 01:23:16;;;;;;;8.60;4.70;;;;;;;5.73;88.07;99227.16;87225;1287;93341;-69
2022/01/04 01:25:22;;;;;;;10.90;4.60;;;;;;;5.68;88.22;99224.63;87240;1287;82980;-69
2022/01/04 01:27:28;;;;;;;13.20;4.30;;;;;;;5.68;88.32;99219.67;87391;1287;82824;-68
2022/01/04 01:29:36;;;;;;;12.30;4.00;;;;;;;5.70;88.55;99219.09;87380;1287;100180;-69
2022/01/04 01:31:46;;;;;;;10.60;3.80;;;;;;;5.71;88.52;99214.11;87250;1287;89956;-68
2022/01/04 01:33:52;;;;;;;11.50;5.00;;;;;;;5.73;88.40;99212.12;87349;1287;95936;-69
2022/01/04 01:35:58;;;;;;;10.00;4.20;;;;;;;5.72;88.38;99209.59;87367;1287;79792;-70
2022/01/04 01:38:04;;;;;;;11.30;4.00;;;;;;;5.65;88.46;99213.80;87385;1287;82453;-71
2022/01/04 01:40:13;;;;;;;11.10;4.10;;;;;;;5.62;88.41;99210.08;87232;1287;98259;-70
2022/01/04 01:42:23;;;;;;;10.60;3.70;;;;;;;5.61;88.42;99210.92;87341;1287;89626;-68
2022/01/04 01:44:31;;;;;;;10.90;4.40;;;;;;;5.60;88.58;99210.88;87340;1287;94975;-69
2022/01/04 01:46:37;;;;;;;10.40;3.40;;;;;;;5.60;88.45;99207.64;87296;1287;80971;-69
2022/01/04 01:48:42;;;;;;;8.50;3.80;;;;;;;5.52;88.71;99208.25;87412;1288;82162;-70
2022/01/04 01:50:49;;;;;;;9.60;4.30;;;;;;;5.51;88.65;99213.64;87339;1288;99737;-68
2022/01/04 01:52:58;;;;;;;11.20;4.40;;;;;;;5.48;88.63;99211.33;87358;1287;89075;-70
2022/01/04 01:55:06;;;;;;;9.90;4.70;;;;;;;5.45;88.65;99210.69;87204;1287;95737;-70
2022/01/04 01:57:11;;;;;;;10.30;4.70;;;;;;;5.38;88.65;99204.98;87239;1287;79600;-70
2022/01/04 01:59:18;;;;;;;10.00;4.90;;;;;;;5.32;88.81;99205.89;87291;1287;81581;-70
2022/01/04 02:01:26;;;;;;;15.20;6.00;;;;;;;5.26;88.73;99203.17;87266;1287;99575;-68
2022/01/04 02:03:32;;;;;;;12.70;4.40;;;;;;;5.28;88.90;99202.82;87267;1287;88745;-68
2022/01/04 02:05:39;;;;;;;14.70;5.80;;;;;;;5.34;89.18;99200.85;87374;1287;95487;-68
2022/01/04 02:07:48;;;;;;;13.10;4.50;;;;;;;5.43;89.28;99201.42;87344;1287;80393;-68
2022/01/04 02:10:02;;;;;;;10.80;5.00;;;;;;;5.54;89.27;99201.78;87402;1287;80909;-67
2022/01/04 02:12:11;;;;;;;10.50;4.90;;;;;;;5.64;89.37;99207.35;87343;1287;98912;-67
2022/01/04 02:14:18;;;;;;;12.80;5.20;;;;;;;5.70;89.46;99202.17;87347;1287;87120;-68
2022/01/04 02:16:24;;;;;;;13.30;5.90;;;;;;;5.76;89.39;99199.23;87343;1288;93656;-70
2022/01/04 02:18:30;;;;;;;13.40;5.80;;;;;;;5.80;89.29;99200.13;87353;1287;79613;-71
2022/01/04 02:20:36;;;;;;;11.40;5.10;;;;;;;5.81;89.22;99195.27;87368;1287;82166;-67
2022/01/04 02:22:47;;;;;;;12.70;5.80;;;;;;;5.82;89.24;99193.55;87333;1287;99694;-66
2022/01/04 02:24:53;;;;;;;11.40;5.50;;;;;;;5.83;89.28;99192.33;87385;1287;88414;-69
2022/01/04 02:27:00;;;;;;;14.80;6.40;;;;;;;5.87;89.12;99190.19;87318;1287;95493;-70
2022/01/04 02:29:07;;;;;;;9.60;4.80;;;;;;;5.86;89.11;99189.59;87368;1287;80645;-70
2022/01/04 02:31:13;;;;;;;12.20;4.60;;;;;;;5.87;89.13;99190.06;87368;1287;79767;-67
2022/01/04 02:33:21;;;;;;;10.00;5.00;;;;;;;5.89;89.27;99189.09;87305;1287;100751;-68
2022/01/04 02:35:30;;;;;;;14.20;5.50;;;;;;;5.97;89.23;99186.86;87262;1287;86894;-70
2022/01/04 02:37:36;;;;;;;14.00;5.50;;;;;;;6.02;89.04;99186.55;87170;1288;94763;-68
2022/01/04 02:39:42;;;;;;;13.30;5.50;;;;;;;6.05;88.95;99185.34;87243;1287;82541;-67
2022/01/04 02:41:47;;;;;;;11.50;5.20;;;;;;;6.08;88.88;99184.17;87162;1288;81470;-70
2022/01/04 02:43:56;;;;;;;10.50;4.60;;;;;;;6.10;88.88;99181.31;87236;1287;99529;-67
2022/01/04 02:46:02;;;;;;;10.60;5.60;;;;;;;6.07;88.86;99183.02;87184;1288;88157;-68
2022/01/04 02:48:08;;;;;;;10.70;5.10;;;;;;;6.08;88.75;99180.34;87239;1287;94691;-67
2022/01/04 02:50:14;;;;;;;10.40;4.80;;;;;;;5.99;88.67;99176.39;87170;1288;81431;-67
2022/01/04 02:52:24;;;;;;;12.10;4.80;;;;;;;5.90;88.49;99167.46;87246;1287;83139;-68
2022/01/04 02:54:30;;;;;;;10.20;4.50;;;;;;;5.84;88.59;99169.59;87130;1288;98724;-68
2022/01/04 02:56:35;;;;;;;11.70;4.40;;;;;;;5.79;88.45;99170.46;87246;1287;89576;-67
2022/01/04 02:58:41;;;;;;;12.80;4.60;;;;;;;5.74;88.27;99163.20;87226;1287;95303;-69
2022/01/04 03:00:47;;;;;;;8.90;4.80;;;;;;;5.66;88.41;99162.91;87211;1287;80884;-67
2022/01/04 03:02:56;;;;;;;12.20;4.90;;;;;;;5.58;88.42;99158.23;87275;1287;82383;-68
2022/01/04 03:05:02;;;;;;;12.20;4.90;;;;;;;5.52;88.53;99152.91;87242;1287;99128;-70
2022/01/04 03:07:08;;;;;;;11.20;5.10;;;;;;;5.45;88.46;99152.04;87244;1287;87826;-70
2022/01/04 03:09:13;;;;;;;14.00;5.20;;;;;;;5.43;88.52;99153.92;87325;1287;95452;-69
2022/01/04 03:11:22;;;;;;;12.50;5.20;;;;;;;5.39;88.45;99154.73;87337;1287;78760;-69
2022/01/04 03:13:28;;;;;;;11.40;5.00;;;;;;;5.34;88.47;99152.91;87174;1288;82073;-69
2022/01/04 03:15:33;;;;;;;10.40;5.10;;;;;;;5.28;88.52;99148.64;87363;1287;98817;-67
2022/01/04 03:17:43;;;;;;;10.80;5.20;;;;;;;5.21;88.50;99140.54;87254;1287;87033;-67
2022/01/04 03:19:48;;;;;;;15.10;5.80;;;;;;;5.18;88.63;99140.86;87355;1287;94129;-67
2022/01/04 03:21:54;;;;;;;13.80;4.70;;;;;;;5.15;88.47;99144.63;87350;1287;79969;-67
2022/01/04 03:24:05;;;;;;;10.60;5.20;;;;;;;5.14;88.79;99145.27;87337;1287;81060;-67
2022/01/04 03:26:11;;;;;;;11.60;4.70;;;;;;;5.17;88.72;99139.38;87372;1287;99630;-67
2022/01/04 03:28:19;;;;;;;17.40;4.80;;;;;;;5.23;88.91;99140.54;87360;1287;87646;-68
2022/01/04 03:30:25;;;;;;;9.20;4.10;;;;;;;5.30;89.01;99136.70;87374;1287;95247;-67
2022/01/04 03:32:31;;;;;;;12.50;5.10;;;;;;;5.31;88.86;99140.23;87268;1287;81130;-68
2022/01/04 03:34:37;;;;;;;13.10;5.40;;;;;;;5.33;88.59;99140.70;87332;1287;80497;-68
2022/01/04 03:36:46;;;;;;;11.50;4.70;;;;;;;5.33;88.62;99139.66;87325;1287;99802;-68
2022/01/04 03:38:53;;;;;;;10.40;5.00;;;;;;;5.28;88.54;99134.95;87368;1287;86101;-68
2022/01/04 03:40:58;;;;;;;11.00;4.40;;;;;;;5.23;88.67;99130.92;87229;1287;95373;-69
2022/01/04 03:43:04;;;;;;;9.90;4.90;;;;;;;5.24;88.65;99132.23;87150;1288;80327;-68
2022/01/04 03:45:11;;;;;;;11.60;4.40;;;;;;;5.25;88.65;99124.45;87229;1287;81101;-69
2022/01/04 03:47:17;;;;;;;9.00;4.40;;;;;;;5.23;88.64;99124.21;87186;1288;100037;-69
2022/01/04 03:49:27;;;;;;;13.80;5.20;;;;;;;5.18;88.75;99125.30;87197;1287;89335;-70
2022/01/04 03:51:32;;;;;;;10.10;4.70;;;;;;;5.27;88.77;99123.48;87269;1287;95632;-70
2022/01/04 03:53:38;;;;;;;11.70;4.60;;;;;;;5.30;88.94;99125.13;87255;1287;80054;-70
2022/01/04 03:55:44;;;;;;;12.70;4.70;;;;;;;5.33;88.69;99122.70;87176;1288;83110;-68
2022/01/04 03:57:49;;;;;;;11.70;4.50;;;;;;;5.34;88.69;99119.74;87235;1287;100248;-68
2022/01/04 03:59:58;;;;;;;11.10;4.70;;;;;;;5.31;88.58;99114.11;87196;1288;87977;-68
2022/01/04 04:02:05;;;;;;;10.60;4.20;;;;;;;5.29;88.48;99115.08;86946;1287;371505;-68
2022/01/04 04:04:11;;;;;;;10.10;4.30;;;;;;;5.30;88.41;99111.20;87268;1287;80577;-68
2022/01/04 04:06:17;;;;;;;10.80;4.70;;;;;;;5.29;88.45;99104.29;87216;1287;82631;-70
2022/01/04 04:08:22;;;;;;;15.00;4.70;;;;;;;5.24;88.30;99106.93;87224;1287;98415;-70
2022/01/04 04:10:28;;;;;;;11.30;5.00;;;;;;;5.14;88.35;99098.28;87195;1288;89553;-68
2022/01/04 04:12:34;;;;;;;10.30;4.50;;;;;;;5.08;88.37;99100.91;87241;1287;94901;-69
2022/01/04 04:14:43;;;;;;;11.40;4.80;;;;;;;5.00;88.25;99101.44;87212;1287;81040;-70
2022/01/04 04:16:49;;;;;;;11.20;4.40;;;;;;;4.94;88.28;99100.11;87259;1287;81652;-69
2022/01/04 04:18:54;;;;;;;8.00;4.20;;;;;;;4.86;88.42;99099.44;87127;1290;99655;-70
2022/01/04 04:21:00;;;;;;;11.30;4.20;;;;;;;4.81;88.43;99101.13;87197;1287;89230;-68
2022/01/04 04:23:07;;;;;;;10.80;4.00;;;;;;;4.79;88.41;99095.98;87232;1287;94187;-68
2022/01/04 04:25:12;;;;;;;10.90;4.30;;;;;;;4.79;88.52;99098.46;87169;1288;80137;-68
2022/01/04 04:27:18;;;;;;;10.50;4.80;;;;;;;4.77;88.59;99103.98;87218;1287;82722;-68
2022/01/04 04:29:24;;;;;;;9.80;3.70;;;;;;;4.77;88.62;99107.98;87028;1290;98643;-68
2022/01/04 04:31:30;;;;;;;8.30;4.50;;;;;;;4.82;88.71;99107.48;87217;1287;89344;-68
2022/01/04 04:33:38;;;;;;;8.90;4.40;;;;;;;4.87;88.81;99101.65;87248;1287;94126;-68
2022/01/04 04:35:47;;;;;;;9.50;4.70;;;;;;;4.89;88.74;99104.61;87203;1287;77523;-67
2022/01/04 04:37:53;;;;;;;8.90;4.00;;;;;;;4.92;88.92;99110.66;87235;1287;82728;-68
2022/01/04 04:39:58;;;;;;;7.20;4.00;;;;;;;4.97;88.75;99106.16;87214;1287;99909;-67
2022/01/04 04:42:05;;;;;;;9.00;4.40;;;;;;;4.95;88.66;99100.98;87205;1287;88639;-68
2022/01/04 04:44:11;;;;;;;15.70;5.60;;;;;;;4.93;88.73;99097.20;87242;1287;93826;-67
2022/01/04 04:46:20;;;;;;;7.10;3.80;;;;;;;4.92;88.69;99097.81;87227;1287;80869;-69
2022/01/04 04:48:25;;;;;;;9.60;3.90;;;;;;;4.92;88.68;99094.98;87238;1287;82814;-69
2022/01/04 04:50:33;;;;;;;9.20;4.70;;;;;;;4.88;88.81;99091.34;87265;1287;99334;-68
2022/01/04 04:52:39;;;;;;;11.00;4.30;;;;;;;4.88;88.79;99091.26;87250;1287;87177;-68
2022/01/04 04:54:49;;;;;;;10.30;4.20;;;;;;;4.89;88.84;99083.21;87148;1288;96072;-69
2022/01/04 04:56:55;;;;;;;9.30;4.70;;;;;;;4.89;88.79;99081.60;87256;1288;79810;-69
2022/01/04 04:59:01;;;;;;;8.90;4.20;;;;;;;4.87;88.92;99084.90;87258;1287;81135;-69
2022/01/04 05:01:06;;;;;;;8.20;4.50;;;;;;;4.91;88.89;99087.05;87231;1287;100106;-67
2022/01/04 05:03:15;;;;;;;12.20;4.70;;;;;;;4.95;88.98;99084.47;87242;1287;89669;-68
2022/01/04 05:05:21;;;;;;;10.10;5.30;;;;;;;5.02;89.01;99079.84;87222;1287;95691;-69
2022/01/04 05:07:27;;;;;;;11.40;5.10;;;;;;;5.08;89.09;99079.27;87167;1290;80211;-69
2022/01/04 05:09:36;;;;;;;10.10;4.80;;;;;;;5.13;89.11;99084.52;87186;1290;82901;-69
2022/01/04 05:11:42;;;;;;;13.10;5.40;;;;;;;5.19;89.07;99077.18;87203;1287;100536;-69
2022/01/04 05:13:48;;;;;;;9.70;4.30;;;;;;;5.24;89.23;99074.20;87161;1290;88873;-69
2022/01/04 05:15:54;;;;;;;10.30;4.30;;;;;;;5.31;89.20;99071.75;87119;1288;94499;-66
2022/01/04 05:18:03;;;;;;;12.10;5.50;;;;;;;5.36;89.22;99075.19;87218;1287;79348;-67
2022/01/04 05:20:12;;;;;;;9.10;4.60;;;;;;;5.42;89.13;99070.36;87174;1289;80920;-70
2022/01/04 05:22:19;;;;;;;10.20;4.90;;;;;;;5.47;89.23;99072.30;87141;1290;100038;-69
2022/01/04 05:24:25;;;;;;;9.30;4.50;;;;;;;5.56;89.23;99074.38;87246;1287;89304;-70
2022/01/04 05:26:32;;;;;;;10.80;4.90;;;;;;;5.61;89.21;99076.75;87233;1287;94847;-68
2022/01/04 05:28:42;;;;;;;9.50;4.50;;;;;;;5.68;89.19;99079.54;87216;1287;81016;-68
2022/01/04 05:30:48;;;;;;;10.60;5.00;;;;;;;5.72;89.43;99078.31;87269;1287;80832;-71
2022/01/04 05:32:54;;;;;;;12.80;4.90;;;;;;;5.79;89.51;99071.45;87319;1287;98925;-68
2022/01/04 05:35:00;;;;;;;8.40;4.70;;;;;;;5.86;89.38;99070.80;87227;1287;87763;-68
2022/01/04 05:37:09;;;;;;;10.70;4.50;;;;;;;5.89;89.42;99066.81;87210;1287;93422;-67
2022/01/04 05:39:16;;;;;;;10.10;4.90;;;;;;;5.86;89.33;99062.41;87243;1287;78911;-67
2022/01/04 05:41:21;;;;;;;11.00;4.80;;;;;;;5.84;89.38;99057.83;87252;1287;82208;-68
2022/01/04 05:43:31;;;;;;;11.20;5.10;;;;;;;5.83;89.40;99056.32;87142;1290;99617;-68
2022/01/04 05:45:40;;;;;;;10.20;5.90;;;;;;;5.80;89.26;99056.21;87275;1287;87410;-69
2022/01/04 05:47:46;;;;;;;11.30;5.40;;;;;;;5.73;89.13;99059.40;87279;1287;94564;-69
2022/01/04 05:49:53;;;;;;;9.10;4.90;;;;;;;5.68;89.08;99056.42;87238;1287;82399;-67
2022/01/04 05:51:58;;;;;;;8.50;4.70;;;;;;;5.58;88.90;99053.27;87147;1288;83289;-68
2022/01/04 05:54:05;;;;;;;12.60;5.10;;;;;;;5.43;89.03;99051.21;87212;1287;100120;-68
2022/01/04 05:56:10;;;;;;;10.10;4.90;;;;;;;5.32;88.95;99047.67;87188;1290;87776;-68
2022/01/04 05:58:20;;;;;;;7.90;4.60;;;;;;;5.28;89.02;99044.75;87252;1287;95807;-67
2022/01/04 06:00:29;;;;;;;9.80;5.60;;;;;;;5.24;89.01;99051.24;87181;1290;79485;-70
2022/01/04 06:02:35;;;;;;;9.00;4.70;;;;;;;5.18;88.98;99052.98;87232;1287;81424;-70
2022/01/04 06:04:41;;;;;;;9.90;4.30;;;;;;;5.08;88.97;99051.55;87255;1287;96887;-69
2022/01/04 06:06:47;;;;;;;9.10;4.20;;;;;;;5.06;88.96;99045.46;87175;1290;87049;-70
2022/01/04 06:08:52;;;;;;;12.20;4.90;;;;;;;5.03;89.07;99041.36;87227;1287;95265;-71
2022/01/04 06:11:01;;;;;;;10.80;5.10;;;;;;;5.06;89.20;99039.55;87142;1288;78319;-71
2022/01/04 06:15:30;;;;;;;;;;;;;;;5.08;89.18;99034.87;87248;1287;99505;-67
2022/01/04 06:17:38;;;;;;;9.70;5.20;;;;;;;5.02;89.26;99033.44;87258;1287;90008;-68
2022/01/04 06:19:44;;;;;;;10.80;4.60;;;;;;;4.94;89.21;99037.00;87237;1287;95271;-69
2022/01/04 06:21:53;;;;;;;11.10;4.40;;;;;;;4.87;89.25;99044.52;87235;1287;82163;-68
2022/01/04 06:24:01;;;;;;;11.10;4.70;;;;;;;4.87;89.15;99042.63;87257;1287;80260;-69
2022/01/04 06:26:10;;;;;;;11.20;5.20;;;;;;;4.86;89.33;99042.08;87229;1287;100150;-69
2022/01/04 06:28:18;;;;;;;10.00;4.70;;;;;;;4.84;89.37;99038.52;87225;1287;88475;-69
2022/01/04 06:30:27;;;;;;;9.60;5.00;;;;;;;4.85;89.49;99040.76;87168;1290;95438;-68
2022/01/04 06:32:33;;;;;;;9.20;4.50;;;;;;;4.83;89.51;99038.27;87150;1288;78755;-68
2022/01/04 06:34:40;;;;;;;9.00;4.80;;;;;;;4.84;89.68;99037.08;87196;1288;82323;-68
2022/01/04 06:36:45;;;;;;;10.20;5.20;;;;;;;4.86;90.00;99036.52;87179;1288;99176;-69
2022/01/04 06:38:54;;;;;;;11.60;4.90;;;;;;;4.95;90.02;99031.96;87144;1288;87323;-68
2022/01/04 06:41:00;;;;;;;9.30;5.60;;;;;;;5.04;90.02;99031.28;87154;1288;95450;-68
2022/01/04 06:43:06;;;;;;;11.40;5.80;;;;;;;5.10;90.00;99032.09;87258;1287;78508;-68
2022/01/04 06:45:14;;;;;;;8.60;5.10;;;;;;;5.19;90.00;99033.60;87238;1287;83233;-69
2022/01/04 06:47:20;;;;;;;13.60;5.90;;;;;;;5.18;89.89;99034.79;87175;1288;98620;-67
2022/01/04 06:49:26;;;;;;;11.20;6.10;;;;;;;5.15;89.76;99038.01;87249;1287;88457;-67
2022/01/04 06:51:32;;;;;;;13.50;8.10;;;;;;;5.14;89.82;99046.63;87155;1288;95664;-68
2022/01/04 06:53:38;;;;;;;146.90;84.40;;;;;;;5.09;89.76;99048.96;87159;1287;81872;-67
2022/01/04 06:55:49;;;;;;;47.50;27.70;;;;;;;5.15;89.80;99049.83;87249;1287;82322;-69
2022/01/04 06:57:55;;;;;;;12.90;6.10;;;;;;;5.21;89.90;99046.06;87261;1287;97781;-70
2022/01/04 07:00:01;;;;;;;12.90;6.30;;;;;;;5.28;90.01;99039.44;87249;1287;87679;-68
2022/01/04 07:02:08;;;;;;;11.40;5.80;;;;;;;5.30;90.12;99036.73;87277;1287;94679;-67
2022/01/04 07:04:14;;;;;;;11.60;5.70;;;;;;;5.36;90.16;99036.52;87186;1288;80470;-67
2022/01/04 07:06:20;;;;;;;10.40;5.60;;;;;;;5.42;90.08;99032.54;87277;1287;80374;-70
2022/01/04 07:08:29;;;;;;;10.90;5.30;;;;;;;5.49;90.03;99021.03;87270;1287;100335;-69
2022/01/04 07:10:35;;;;;;;8.80;5.10;;;;;;;5.47;90.04;99023.89;87273;1287;88324;-68
2022/01/04 07:12:41;;;;;;;14.00;5.70;;;;;;;5.47;90.03;99019.08;87243;1287;94039;-69
2022/01/04 07:14:47;;;;;;;10.00;5.80;;;;;;;5.53;89.98;99022.47;87261;1287;79688;-70
2022/01/04 07:16:52;;;;;;;9.70;6.70;;;;;;;5.51;90.15;99016.77;87184;1288;79911;-70
2022/01/04 07:19:01;;;;;;;11.00;6.00;;;;;;;5.55;90.08;99014.02;87259;1287;100012;-70
2022/01/04 07:21:07;;;;;;;10.10;5.80;;;;;;;5.56;89.87;99009.98;87252;1287;89097;-70
2022/01/04 07:23:13;;;;;;;10.50;6.10;;;;;;;5.55;89.89;99010.52;87248;1287;95802;-68
2022/01/04 07:25:18;;;;;;;12.10;6.60;;;;;;;5.55;90.05;99009.60;87127;1288;81221;-75
2022/01/04 07:27:24;;;;;;;10.20;6.00;;;;;;;5.58;90.13;99005.17;87259;1287;81195;-72
2022/01/04 07:29:29;;;;;;;8.40;5.90;;;;;;;5.58;90.20;99006.81;87231;1287;98069;-68
2022/01/04 07:31:38;;;;;;;10.80;5.70;;;;;;;5.62;90.12;99010.29;87237;1287;89009;-67
2022/01/04 07:33:45;;;;;;;10.00;5.60;;;;;;;5.68;90.01;99014.33;87150;1288;95871;-69
2022/01/04 07:35:51;;;;;;;11.90;5.90;;;;;;;5.68;90.03;99011.33;87242;1287;79675;-67
2022/01/04 07:37:57;;;;;;;12.30;6.10;;;;;;;5.71;90.19;99001.75;87187;1288;82243;-69
2022/01/04 07:40:03;;;;;;;9.60;5.80;;;;;;;5.80;90.24;98995.98;87268;1287;98062;-70
2022/01/04 07:42:11;;;;;;;12.10;6.40;;;;;;;5.83;90.07;98995.52;87265;1287;89390;-68
2022/01/04 07:44:20;;;;;;;9.40;6.00;;;;;;;5.85;89.87;98996.63;87175;1288;95185;-69
2022/01/04 07:46:31;;;;;;;12.30;7.20;;;;;;;5.84;89.94;98991.84;87263;1287;77985;-70
2022/01/04 07:48:37;;;;;;;11.20;6.80;;;;;;;5.85;89.95;98989.44;87156;1288;83107;-71
2022/01/04 07:50:43;;;;;;;10.00;7.00;;;;;;;5.89;89.96;98988.79;87155;1288;97563;-69
2022/01/04 07:52:51;;;;;;;11.60;6.50;;;;;;;5.89;90.01;98987.02;87141;1288;89426;-68
2022/01/04 07:55:01;;;;;;;10.10;6.50;;;;;;;5.89;89.98;98989.16;87280;1287;94037;-67
2022/01/04 07:57:07;;;;;;;11.20;6.60;;;;;;;5.95;89.88;98991.02;87156;1288;79546;-70
2022/01/04 07:59:14;;;;;;;14.20;6.90;;;;;;;5.99;89.90;98985.77;87251;1287;83514;-69
2022/01/04 08:01:21;;;;;;;10.00;6.50;;;;;;;6.01;90.10;98983.49;87261;1287;99084;-70
2022/01/04 08:03:30;;;;;;;11.60;7.20;;;;;;;6.00;89.99;98983.31;87149;1288;86456;-70
2022/01/04 08:05:36;;;;;;;12.10;7.60;;;;;;;6.08;90.04;98973.52;87144;1288;94438;-66
2022/01/04 08:07:42;;;;;;;10.90;6.90;;;;;;;6.11;90.05;98972.19;87150;1288;80151;-68
2022/01/04 08:09:48;;;;;;;12.40;7.10;;;;;;;6.14;89.99;98968.98;87271;1287;80983;-69
2022/01/04 08:11:54;;;;;;;10.40;6.90;;;;;;;6.18;90.08;98970.51;87156;1288;100170;-69
2022/01/04 08:13:59;;;;;;;11.10;7.10;;;;;;;6.26;90.08;98966.30;87282;1287;87757;-70
2022/01/04 08:16:06;;;;;;;10.50;7.30;;;;;;;6.31;89.90;98963.30;87249;1287;94269;-68
2022/01/04 08:18:15;;;;;;;12.40;8.10;;;;;;;6.33;89.96;98955.37;87249;1287;77133;-68
2022/01/04 08:20:21;;;;;;;10.30;7.30;;;;;;;6.35;89.79;98950.66;87250;1287;81059;-68
2022/01/04 08:22:32;;;;;;;13.70;8.50;;;;;;;6.40;89.78;98946.42;87259;1287;99766;-72
2022/01/04 08:24:38;;;;;;;16.30;8.90;;;;;;;6.43;89.84;98941.39;87266;1287;88973;-66
2022/01/04 08:26:44;;;;;;;12.50;7.70;;;;;;;6.46;89.93;98935.42;87153;1288;94555;-67
2022/01/04 08:28:51;;;;;;;11.50;7.10;;;;;;;6.58;90.01;98931.56;87041;1290;80418;-65
2022/01/04 08:31:01;;;;;;;12.90;7.40;;;;;;;6.73;89.85;98919.36;87281;1287;80941;-67
2022/01/04 08:33:09;;;;;;;11.00;7.30;;;;;;;6.81;89.64;98914.19;87251;1287;99427;-67
2022/01/04 08:35:19;;;;;;;10.10;7.50;;;;;;;6.87;89.69;98917.48;87276;1287;89053;-66
2022/01/04 08:37:26;;;;;;;10.50;6.90;;;;;;;6.94;89.56;98911.13;87233;1287;95501;-67
2022/01/04 08:39:56;;;;;;;13.00;7.70;;;;;;;7.02;89.54;98911.31;87268;1287;81010;-66
2022/01/04 08:42:03;;;;;;;10.50;7.30;;;;;;;7.02;89.29;98915.16;87280;1287;82227;-66
2022/01/04 08:44:09;;;;;;;12.90;8.10;;;;;;;7.09;89.29;98912.90;87291;1287;97832;-67
2022/01/04 08:46:15;;;;;;;11.80;7.90;;;;;;;7.16;89.45;98903.83;87183;1288;88631;-67
2022/01/04 08:48:24;;;;;;;10.20;7.60;;;;;;;7.21;89.33;98898.27;87271;1287;95049;-67
2022/01/04 08:50:30;;;;;;;11.30;7.20;;;;;;;7.18;89.09;98902.39;87284;1287;80582;-66
2022/01/04 08:52:40;;;;;;;10.90;7.80;;;;;;;7.22;89.21;98898.42;87237;1287;82581;-66
2022/01/04 08:54:46;;;;;;;11.00;7.00;;;;;;;7.21;88.99;98893.89;87229;1287;99665;-68
2022/01/04 08:56:54;;;;;;;12.40;7.60;;;;;;;7.23;88.76;98894.80;87200;1288;88379;-67
2022/01/04 08:59:00;;;;;;;7.80;5.90;;;;;;;7.24;88.74;98888.59;87152;1288;94150;-67
2022/01/04 09:01:06;;;;;;;13.20;7.30;;;;;;;7.24;88.69;98879.46;87280;1287;80870;-67
2022/01/04 09:03:12;;;;;;;10.60;7.40;;;;;;;7.24;88.81;98877.49;87160;1288;80735;-68
2022/01/04 09:05:18;;;;;;;11.70;7.00;;;;;;;7.31;88.97;98878.27;87298;1287;99935;-66
2022/01/04 09:07:24;;;;;;;13.90;7.40;;;;;;;7.34;88.85;98874.48;87184;1288;87589;-65
2022/01/04 09:09:30;;;;;;;11.90;7.00;;;;;;;7.35;88.83;98871.70;87272;1287;95328;-66
2022/01/04 09:11:39;;;;;;;9.50;7.40;;;;;;;7.36;88.99;98867.77;87165;1287;79514;-67
2022/01/04 09:13:46;;;;;;;10.00;7.50;;;;;;;7.45;88.90;98866.72;87257;1287;81150;-67
2022/01/04 09:20:47;;;;;;;11.90;6.70;;;;;;;7.61;88.49;98874.39;87315;1287;95128;-67
2022/01/04 09:22:57;;;;;;;12.30;7.50;;;;;;;7.60;88.46;98873.07;87124;1288;82968;-67
2022/01/04 09:25:05;;;;;;;10.70;6.60;;;;;;;7.57;88.21;98871.36;87064;1288;81538;-65
2022/01/04 09:27:11;;;;;;;10.80;6.60;;;;;;;7.55;88.43;98873.41;87160;1288;98568;-66
2022/01/04 09:29:19;;;;;;;9.90;6.50;;;;;;;7.57;88.46;98874.40;87171;1288;87353;-68
2022/01/04 09:31:28;;;;;;;11.10;7.20;;;;;;;7.58;88.17;98870.42;87240;1287;93239;-67
2022/01/04 09:33:34;;;;;;;11.90;6.90;;;;;;;7.65;88.20;98858.27;87165;1287;78355;-65
2022/01/04 09:35:42;;;;;;;10.10;7.00;;;;;;;7.67;88.09;98858.89;87174;1288;80815;-66
2022/01/04 09:37:48;;;;;;;12.20;7.80;;;;;;;7.72;87.93;98859.05;87152;1288;98921;-65
2022/01/04 09:39:54;;;;;;;13.40;7.60;;;;;;;7.78;87.82;98852.88;87248;1287;89497;-66
2022/01/04 09:42:05;;;;;;;11.40;7.30;;;;;;;7.78;87.82;98848.61;87159;1288;95114;-67
2022/01/04 09:44:15;;;;;;;9.80;6.90;;;;;;;7.79;87.94;98844.27;87100;1288;81713;-67
2022/01/04 09:46:26;;;;;;;10.10;7.60;;;;;;;7.85;87.93;98839.47;87272;1287;82700;-67
2022/01/04 09:48:36;;;;;;;8.50;6.40;;;;;;;7.90;87.65;98834.00;87230;1287;98602;-67
2022/01/04 09:50:44;;;;;;;11.50;8.00;;;;;;;7.92;87.46;98829.19;87085;1288;88938;-67
2022/01/04 09:52:57;;;;;;;11.50;7.00;;;;;;;7.93;87.48;98820.88;87256;1286;94142;-68
2022/01/04 09:55:07;;;;;;;9.50;7.50;;;;;;;7.97;87.58;98830.38;87148;1288;79511;-68
2022/01/04 09:57:16;;;;;;;10.50;6.80;;;;;;;8.01;87.48;98825.98;87242;1287;82985;-66
2022/01/04 09:59:22;;;;;;;12.40;7.60;;;;;;;8.01;87.34;98820.39;87281;1287;99606;-67
2022/01/04 10:01:37;;;;;;;10.30;7.80;;;;;;;7.99;87.24;98812.89;87255;1287;86151;-67
2022/01/04 10:03:48;;;;;;;9.30;6.60;;;;;;;7.96;87.08;98810.77;87306;1287;96751;-67
2022/01/04 10:06:03;;;;;;;10.60;6.90;;;;;;;7.96;86.98;98805.27;87318;1287;80815;-67
2022/01/04 10:08:15;;;;;;;9.80;7.70;;;;;;;7.94;87.03;98804.95;87265;1287;82013;-67